sensor_id;sensor_type;location;lat;lon;timestamp;temperature;humidity
1992;DHT22;997;48.448;8.924;2022-09-28T03:02:11;9.60;99.90
1992;DHT22;997;48.448;8.924;2022-09-28T03:04:53;9.70;99.90
1992;DHT22;997;48.448;8.924;2022-09-28T03:07:29;9.70;99.90
1992;DHT22;997;48.448;8.924;2022-09-28T03:12:44;9.70;99.90
1992;DHT22;997;48.448;8.924;2022-09-28T03:17:45;9.70;99.90
1992;DHT22;997;48.448;8.924;2022-09-28T03:20:11;9.80;99.90
1992;DHT22;997;48.448;8.924;2022-09-28T03:22:37;9.80;99.90
1992;DHT22;997;48.448;8.924;2022-09-28T03:25:04;9.80;99.90
1992;DHT22;997;48.448;8.924;2022-09-28T03:27:31;9.80;99.90
1992;DHT22;997;48.448;8.924;2022-09-28T03:29:56;9.80;99.90
1992;DHT22;997;48.448;8.924;2022-09-28T03:32:23;9.80;99.90
1992;DHT22;997;48.448;8.924;2022-09-28T03:34:49;9.80;99.90
1992;DHT22;997;48.448;8.924;2022-09-28T03:37:16;9.80;99.90
1992;DHT22;997;48.448;8.924;2022-09-28T03:39:42;9.90;99.90
1992;DHT22;997;48.448;8.924;2022-09-28T03:42:08;9.90;99.90
1992;DHT22;997;48.448;8.924;2022-09-28T03:44:33;9.90;99.90
1992;DHT22;997;48.448;8.924;2022-09-28T03:46:59;9.90;99.90
1992;DHT22;997;48.448;8.924;2022-09-28T03:49:25;9.80;99.90
1992;DHT22;997;48.448;8.924;2022-09-28T03:51:51;9.80;99.90
1992;DHT22;997;48.448;8.924;2022-09-28T03:54:16;9.80;99.90
1992;DHT22;997;48.448;8.924;2022-09-28T03:56:44;9.80;99.90
1992;DHT22;997;48.448;8.924;2022-09-28T03:59:10;9.80;99.90
1992;DHT22;997;48.448;8.924;2022-09-28T04:01:36;9.80;99.90
1992;DHT22;997;48.448;8.924;2022-09-28T04:04:02;9.80;99.90
1992;DHT22;997;48.448;8.924;2022-09-28T04:06:28;9.80;99.90
1992;DHT22;997;48.448;8.924;2022-09-28T04:08:56;9.70;99.90
1992;DHT22;997;48.448;8.924;2022-09-28T04:11:22;9.80;99.90
1992;DHT22;997;48.448;8.924;2022-09-28T04:13:48;9.90;99.90
1992;DHT22;997;48.448;8.924;2022-09-28T04:16:14;9.90;99.90
1992;DHT22;997;48.448;8.924;2022-09-28T04:18:40;9.90;99.90
1992;DHT22;997;48.448;8.924;2022-09-28T04:21:10;9.90;99.90
1992;DHT22;997;48.448;8.924;2022-09-28T04:23:38;9.90;99.90
1992;DHT22;997;48.448;8.924;2022-09-28T04:26:10;9.90;99.90
1992;DHT22;997;48.448;8.924;2022-09-28T04:28:37;9.90;99.90
1992;DHT22;997;48.448;8.924;2022-09-28T04:31:22;10.00;99.90
1992;DHT22;997;48.448;8.924;2022-09-28T04:33:48;9.90;99.90
1992;DHT22;997;48.448;8.924;2022-09-28T04:36:14;9.90;99.90
1992;DHT22;997;48.448;8.924;2022-09-28T04:38:40;9.80;99.90
1992;DHT22;997;48.448;8.924;2022-09-28T04:41:06;9.90;99.90
1992;DHT22;997;48.448;8.924;2022-09-28T04:43:32;9.80;99.90
1992;DHT22;997;48.448;8.924;2022-09-28T04:46:00;9.90;99.90
1992;DHT22;997;48.448;8.924;2022-09-28T04:48:27;9.90;99.90
1992;DHT22;997;48.448;8.924;2022-09-28T04:50:58;10.00;99.90
1992;DHT22;997;48.448;8.924;2022-09-28T04:53:25;10.00;99.90
1992;DHT22;997;48.448;8.924;2022-09-28T04:56:05;10.10;99.90
1992;DHT22;997;48.448;8.924;2022-09-28T04:58:33;10.10;99.90
1992;DHT22;997;48.448;8.924;2022-09-28T05:01:01;10.10;99.90
1992;DHT22;997;48.448;8.924;2022-09-28T05:03:28;10.10;99.90
1992;DHT22;997;48.448;8.924;2022-09-28T05:05:54;10.10;99.90
1992;DHT22;997;48.448;8.924;2022-09-28T05:08:20;10.10;99.90
1992;DHT22;997;48.448;8.924;2022-09-28T05:10:45;10.10;99.90
1992;DHT22;997;48.448;8.924;2022-09-28T05:13:12;10.10;99.90
1992;DHT22;997;48.448;8.924;2022-09-28T05:15:40;10.10;99.90
1992;DHT22;997;48.448;8.924;2022-09-28T05:18:06;10.10;99.90
1992;DHT22;997;48.448;8.924;2022-09-28T05:20:33;10.10;99.90
1992;DHT22;997;48.448;8.924;2022-09-28T05:22:59;10.20;99.90
1992;DHT22;997;48.448;8.924;2022-09-28T05:25:24;10.10;99.90
1992;DHT22;997;48.448;8.924;2022-09-28T05:27:56;10.10;99.90
1992;DHT22;997;48.448;8.924;2022-09-28T05:30:26;10.10;99.90
1992;DHT22;997;48.448;8.924;2022-09-28T05:32:51;10.00;99.90
1992;DHT22;997;48.448;8.924;2022-09-28T05:35:19;10.00;99.90
1992;DHT22;997;48.448;8.924;2022-09-28T05:37:45;10.00;99.90
1992;DHT22;997;48.448;8.924;2022-09-28T05:40:12;10.10;99.90
1992;DHT22;997;48.448;8.924;2022-09-28T05:42:38;10.20;99.90
1992;DHT22;997;48.448;8.924;2022-09-28T05:45:06;10.40;99.90
1992;DHT22;997;48.448;8.924;2022-09-28T05:47:39;10.40;99.90
1992;DHT22;997;48.448;8.924;2022-09-28T05:50:07;10.50;99.90
1992;DHT22;997;48.448;8.924;2022-09-28T05:52:33;10.60;99.90
1992;DHT22;997;48.448;8.924;2022-09-28T05:54:59;10.70;99.90
1992;DHT22;997;48.448;8.924;2022-09-28T05:57:25;10.70;99.90
1992;DHT22;997;48.448;8.924;2022-09-28T05:59:50;10.70;99.90
1992;DHT22;997;48.448;8.924;2022-09-28T06:02:16;10.70;99.90
1992;DHT22;997;48.448;8.924;2022-09-28T06:04:42;10.70;99.90
1992;DHT22;997;48.448;8.924;2022-09-28T06:07:07;10.60;99.90
1992;DHT22;997;48.448;8.924;2022-09-28T06:09:33;10.60;99.90
1992;DHT22;997;48.448;8.924;2022-09-28T06:11:59;10.60;99.90
1992;DHT22;997;48.448;8.924;2022-09-28T06:14:25;10.80;99.90
1992;DHT22;997;48.448;8.924;2022-09-28T06:16:51;10.80;99.90
1992;DHT22;997;48.448;8.924;2022-09-28T06:19:17;11.00;99.90
1992;DHT22;997;48.448;8.924;2022-09-28T06:21:43;10.90;99.90
1992;DHT22;997;48.448;8.924;2022-09-28T06:24:09;11.00;99.90
1992;DHT22;997;48.448;8.924;2022-09-28T06:26:34;11.00;99.90
1992;DHT22;997;48.448;8.924;2022-09-28T06:29:01;11.10;99.90
1992;DHT22;997;48.448;8.924;2022-09-28T06:31:28;11.10;99.90
1992;DHT22;997;48.448;8.924;2022-09-28T06:33:55;11.10;99.90
1992;DHT22;997;48.448;8.924;2022-09-28T06:36:22;11.10;99.90
1992;DHT22;997;48.448;8.924;2022-09-28T06:38:47;11.20;99.90
1992;DHT22;997;48.448;8.924;2022-09-28T06:41:13;11.30;99.90
1992;DHT22;997;48.448;8.924;2022-09-28T06:43:39;11.40;99.90
1992;DHT22;997;48.448;8.924;2022-09-28T06:46:07;11.40;99.90
1992;DHT22;997;48.448;8.924;2022-09-28T06:48:34;11.50;99.90
1992;DHT22;997;48.448;8.924;2022-09-28T06:51:00;11.50;99.90
1992;DHT22;997;48.448;8.924;2022-09-28T06:53:27;11.60;99.90
1992;DHT22;997;48.448;8.924;2022-09-28T06:55:54;11.60;99.90
1992;DHT22;997;48.448;8.924;2022-09-28T06:58:21;11.60;99.90
1992;DHT22;997;48.448;8.924;2022-09-28T07:00:49;11.60;99.90
1992;DHT22;997;48.448;8.924;2022-09-28T07:03:18;11.60;99.90
1992;DHT22;997;48.448;8.924;2022-09-28T07:05:46;11.70;99.90
1992;DHT22;997;48.448;8.924;2022-09-28T07:08:13;11.60;99.90
1992;DHT22;997;48.448;8.924;2022-09-28T07:10:45;11.60;99.90
1992;DHT22;997;48.448;8.924;2022-09-28T07:13:12;11.60;99.90
1992;DHT22;997;48.448;8.924;2022-09-28T07:15:38;11.60;99.90
1992;DHT22;997;48.448;8.924;2022-09-28T07:18:06;11.60;99.90
1992;DHT22;997;48.448;8.924;2022-09-28T07:20:33;11.60;99.90
1992;DHT22;997;48.448;8.924;2022-09-28T07:23:01;11.60;99.90
1992;DHT22;997;48.448;8.924;2022-09-28T07:25:28;11.60;99.90
1992;DHT22;997;48.448;8.924;2022-09-28T07:27:56;11.70;99.90
1992;DHT22;997;48.448;8.924;2022-09-28T07:30:24;11.70;99.90
1992;DHT22;997;48.448;8.924;2022-09-28T07:32:54;11.70;99.90
1992;DHT22;997;48.448;8.924;2022-09-28T07:35:20;11.70;99.90
1992;DHT22;997;48.448;8.924;2022-09-28T07:37:46;11.80;99.90
1992;DHT22;997;48.448;8.924;2022-09-28T07:40:12;11.80;99.90
1992;DHT22;997;48.448;8.924;2022-09-28T07:43:03;11.70;99.90
1992;DHT22;997;48.448;8.924;2022-09-28T07:45:29;11.60;99.90
1992;DHT22;997;48.448;8.924;2022-09-28T07:47:58;11.70;99.90
1992;DHT22;997;48.448;8.924;2022-09-28T07:50:24;11.70;99.90
1992;DHT22;997;48.448;8.924;2022-09-28T07:52:49;11.70;99.90
1992;DHT22;997;48.448;8.924;2022-09-28T07:55:15;11.70;99.90
1992;DHT22;997;48.448;8.924;2022-09-28T07:57:41;11.70;99.90
1992;DHT22;997;48.448;8.924;2022-09-28T08:00:08;11.70;99.90
1992;DHT22;997;48.448;8.924;2022-09-28T08:02:34;11.70;99.90
1992;DHT22;997;48.448;8.924;2022-09-28T08:05:01;11.60;99.90
1992;DHT22;997;48.448;8.924;2022-09-28T08:07:27;11.50;99.90
1992;DHT22;997;48.448;8.924;2022-09-28T08:09:53;11.60;99.90
1992;DHT22;997;48.448;8.924;2022-09-28T08:12:19;11.40;99.90
1992;DHT22;997;48.448;8.924;2022-09-28T08:14:46;11.30;99.90
1992;DHT22;997;48.448;8.924;2022-09-28T08:17:12;11.20;99.90
1992;DHT22;997;48.448;8.924;2022-09-28T08:19:38;11.10;99.90
1992;DHT22;997;48.448;8.924;2022-09-28T08:22:22;11.10;99.90
1992;DHT22;997;48.448;8.924;2022-09-28T08:24:48;11.10;99.90
1992;DHT22;997;48.448;8.924;2022-09-28T08:27:15;11.10;99.90
1992;DHT22;997;48.448;8.924;2022-09-28T08:29:41;11.20;99.90
1992;DHT22;997;48.448;8.924;2022-09-28T08:32:08;11.10;99.90
1992;DHT22;997;48.448;8.924;2022-09-28T08:34:35;11.00;99.90
1992;DHT22;997;48.448;8.924;2022-09-28T08:37:01;11.00;99.90
1992;DHT22;997;48.448;8.924;2022-09-28T08:39:27;11.00;99.90
1992;DHT22;997;48.448;8.924;2022-09-28T08:44:52;11.00;99.90
1992;DHT22;997;48.448;8.924;2022-09-28T08:48:02;11.20;99.90
1992;DHT22;997;48.448;8.924;2022-09-28T08:50:48;11.30;99.90
1992;DHT22;997;48.448;8.924;2022-09-28T08:53:40;11.30;99.90
1992;DHT22;997;48.448;8.924;2022-09-28T08:56:11;11.30;99.90
1992;DHT22;997;48.448;8.924;2022-09-28T08:58:42;11.30;99.90
1992;DHT22;997;48.448;8.924;2022-09-28T09:01:12;11.40;99.90
1992;DHT22;997;48.448;8.924;2022-09-28T09:03:42;11.50;99.90
1992;DHT22;997;48.448;8.924;2022-09-28T09:06:29;11.70;99.90
1992;DHT22;997;48.448;8.924;2022-09-28T09:09:45;11.80;99.90
1992;DHT22;997;48.448;8.924;2022-09-28T09:12:09;11.90;99.90
1992;DHT22;997;48.448;8.924;2022-09-28T09:14:56;11.80;99.90
1992;DHT22;997;48.448;8.924;2022-09-28T09:20:24;11.90;99.90
1992;DHT22;997;48.448;8.924;2022-09-28T09:23:14;11.80;99.90
1992;DHT22;997;48.448;8.924;2022-09-28T09:25:48;11.90;99.90
1992;DHT22;997;48.448;8.924;2022-09-28T09:31:03;11.90;99.90
1992;DHT22;997;48.448;8.924;2022-09-28T09:36:42;11.90;99.90
1992;DHT22;997;48.448;8.924;2022-09-28T09:39:21;12.00;99.90
1992;DHT22;997;48.448;8.924;2022-09-28T09:45:08;12.10;99.90
1992;DHT22;997;48.448;8.924;2022-09-28T09:47:42;12.00;99.90
1992;DHT22;997;48.448;8.924;2022-09-28T09:52:53;12.20;99.90
1992;DHT22;997;48.448;8.924;2022-09-28T10:00:44;12.30;99.90
1992;DHT22;997;48.448;8.924;2022-09-28T10:03:29;12.50;99.90
1992;DHT22;997;48.448;8.924;2022-09-28T10:06:09;12.70;99.90
1992;DHT22;997;48.448;8.924;2022-09-28T10:08:40;12.70;99.90
1992;DHT22;997;48.448;8.924;2022-09-28T10:11:24;12.80;99.90
1992;DHT22;997;48.448;8.924;2022-09-28T10:13:51;12.70;99.90
1992;DHT22;997;48.448;8.924;2022-09-28T10:16:18;12.60;99.90
1992;DHT22;997;48.448;8.924;2022-09-28T10:18:44;12.70;99.90
1992;DHT22;997;48.448;8.924;2022-09-28T10:21:14;12.70;99.90
1992;DHT22;997;48.448;8.924;2022-09-28T10:23:41;12.80;99.90
1992;DHT22;997;48.448;8.924;2022-09-28T10:26:19;12.80;99.90
1992;DHT22;997;48.448;8.924;2022-09-28T10:28:51;12.80;99.90
1992;DHT22;997;48.448;8.924;2022-09-28T10:34:01;13.00;99.90
1992;DHT22;997;48.448;8.924;2022-09-28T10:36:27;12.90;99.90
1992;DHT22;997;48.448;8.924;2022-09-28T10:38:53;12.80;99.90
1992;DHT22;997;48.448;8.924;2022-09-28T10:41:20;12.70;99.90
1992;DHT22;997;48.448;8.924;2022-09-28T10:43:52;12.80;99.90
1992;DHT22;997;48.448;8.924;2022-09-28T10:46:38;12.90;99.90
1992;DHT22;997;48.448;8.924;2022-09-28T10:49:14;12.90;99.90
1992;DHT22;997;48.448;8.924;2022-09-28T10:54:16;12.90;99.90
1992;DHT22;997;48.448;8.924;2022-09-28T10:56:42;13.10;99.90
1992;DHT22;997;48.448;8.924;2022-09-28T10:59:40;13.20;99.90
1992;DHT22;997;48.448;8.924;2022-09-28T11:02:22;13.30;99.90
1992;DHT22;997;48.448;8.924;2022-09-28T11:04:59;13.40;99.90
1992;DHT22;997;48.448;8.924;2022-09-28T11:07:27;13.50;99.90
1992;DHT22;997;48.448;8.924;2022-09-28T11:09:55;13.60;99.90
1992;DHT22;997;48.448;8.924;2022-09-28T11:12:25;13.30;99.90
1992;DHT22;997;48.448;8.924;2022-09-28T11:14:57;13.30;99.90
1992;DHT22;997;48.448;8.924;2022-09-28T11:17:34;13.20;99.90
1992;DHT22;997;48.448;8.924;2022-09-28T11:22:58;13.00;99.90
1992;DHT22;997;48.448;8.924;2022-09-28T11:25:26;13.00;99.90
1992;DHT22;997;48.448;8.924;2022-09-28T11:30:31;13.10;99.90
1992;DHT22;997;48.448;8.924;2022-09-28T11:46:55;12.80;99.90
1992;DHT22;997;48.448;8.924;2022-09-28T11:49:39;12.90;99.90
1992;DHT22;997;48.448;8.924;2022-09-28T11:52:15;12.90;99.90
1992;DHT22;997;48.448;8.924;2022-09-28T11:54:49;12.70;99.90
1992;DHT22;997;48.448;8.924;2022-09-28T11:57:21;12.80;99.90
1992;DHT22;997;48.448;8.924;2022-09-28T12:00:03;12.80;99.90
1992;DHT22;997;48.448;8.924;2022-09-28T12:02:57;12.80;99.90
1992;DHT22;997;48.448;8.924;2022-09-28T12:05:37;12.90;99.90
1992;DHT22;997;48.448;8.924;2022-09-28T12:08:14;12.90;99.90
1992;DHT22;997;48.448;8.924;2022-09-28T12:11:04;12.90;99.90
1992;DHT22;997;48.448;8.924;2022-09-28T12:13:46;12.90;99.90
1992;DHT22;997;48.448;8.924;2022-09-28T12:21:36;12.70;99.90
1992;DHT22;997;48.448;8.924;2022-09-28T12:26:43;12.80;99.90
1992;DHT22;997;48.448;8.924;2022-09-28T12:29:14;13.00;99.90
1992;DHT22;997;48.448;8.924;2022-09-28T12:34:17;13.30;99.90
1992;DHT22;997;48.448;8.924;2022-09-28T12:39:57;13.30;99.90
1992;DHT22;997;48.448;8.924;2022-09-28T12:48:30;13.20;99.90
1992;DHT22;997;48.448;8.924;2022-09-28T12:54:26;13.00;99.90
1992;DHT22;997;48.448;8.924;2022-09-28T13:00:12;13.20;99.90
1992;DHT22;997;48.448;8.924;2022-09-28T13:08:13;13.70;99.90
1992;DHT22;997;48.448;8.924;2022-09-28T13:11:13;13.80;99.90
1992;DHT22;997;48.448;8.924;2022-09-28T13:19:49;14.00;99.90
1992;DHT22;997;48.448;8.924;2022-09-28T13:25:05;14.00;99.90
1992;DHT22;997;48.448;8.924;2022-09-28T13:27:51;14.00;99.90
1992;DHT22;997;48.448;8.924;2022-09-28T13:30:18;13.90;99.90
1992;DHT22;997;48.448;8.924;2022-09-28T13:32:45;13.90;99.90
1992;DHT22;997;48.448;8.924;2022-09-28T13:35:18;13.90;99.90
1992;DHT22;997;48.448;8.924;2022-09-28T13:37:44;13.90;99.90
1992;DHT22;997;48.448;8.924;2022-09-28T13:40:10;13.70;99.90
1992;DHT22;997;48.448;8.924;2022-09-28T13:47:54;13.40;99.90
1992;DHT22;997;48.448;8.924;2022-09-28T13:55:48;13.50;99.90
1992;DHT22;997;48.448;8.924;2022-09-28T13:58:29;13.40;99.90
1992;DHT22;997;48.448;8.924;2022-09-28T14:06:29;13.20;99.90
1992;DHT22;997;48.448;8.924;2022-09-28T14:16:36;13.50;99.90
1992;DHT22;997;48.448;8.924;2022-09-28T14:24:38;13.20;99.90
1992;DHT22;997;48.448;8.924;2022-09-28T14:27:17;13.10;99.90
1992;DHT22;997;48.448;8.924;2022-09-28T14:30:44;13.10;99.90
1992;DHT22;997;48.448;8.924;2022-09-28T14:32:40;13.30;99.90
1992;DHT22;997;48.448;8.924;2022-09-28T14:35:27;13.30;99.90
1992;DHT22;997;48.448;8.924;2022-09-28T14:37:59;13.40;99.90
1992;DHT22;997;48.448;8.924;2022-09-28T14:41:05;13.50;99.90
1992;DHT22;997;48.448;8.924;2022-09-28T14:48:53;13.90;99.90
1992;DHT22;997;48.448;8.924;2022-09-28T14:53:55;13.90;99.90
1992;DHT22;997;48.448;8.924;2022-09-28T14:56:25;13.90;99.90
1992;DHT22;997;48.448;8.924;2022-09-28T14:58:55;14.00;99.90
1992;DHT22;997;48.448;8.924;2022-09-28T15:01:22;14.00;99.90
1992;DHT22;997;48.448;8.924;2022-09-28T15:03:53;13.90;99.90
1992;DHT22;997;48.448;8.924;2022-09-28T15:06:24;13.80;99.90
1992;DHT22;997;48.448;8.924;2022-09-28T15:08:53;13.60;99.90
1992;DHT22;997;48.448;8.924;2022-09-28T15:11:21;13.30;99.90
1992;DHT22;997;48.448;8.924;2022-09-28T15:13:48;13.20;99.90
1992;DHT22;997;48.448;8.924;2022-09-28T15:16:22;13.10;99.90
1992;DHT22;997;48.448;8.924;2022-09-28T15:19:15;13.10;99.90
1992;DHT22;997;48.448;8.924;2022-09-28T15:21:44;13.20;99.90
1992;DHT22;997;48.448;8.924;2022-09-28T15:24:38;13.20;99.90
1992;DHT22;997;48.448;8.924;2022-09-28T15:27:14;13.20;99.90
1992;DHT22;997;48.448;8.924;2022-09-28T15:29:40;13.10;99.90
1992;DHT22;997;48.448;8.924;2022-09-28T15:32:25;13.10;99.90
1992;DHT22;997;48.448;8.924;2022-09-28T15:34:51;13.00;99.90
1992;DHT22;997;48.448;8.924;2022-09-28T15:37:31;12.80;99.90
1992;DHT22;997;48.448;8.924;2022-09-28T15:40:00;12.60;99.90
1992;DHT22;997;48.448;8.924;2022-09-28T15:42:27;12.50;99.90
1992;DHT22;997;48.448;8.924;2022-09-28T15:47:28;12.40;99.90
1992;DHT22;997;48.448;8.924;2022-09-28T15:50:03;12.30;99.90
1992;DHT22;997;48.448;8.924;2022-09-28T15:52:39;12.30;99.90
1992;DHT22;997;48.448;8.924;2022-09-28T15:57:49;12.30;99.90
1992;DHT22;997;48.448;8.924;2022-09-28T16:00:35;12.10;99.90
1992;DHT22;997;48.448;8.924;2022-09-28T16:08:18;11.90;99.90
1992;DHT22;997;48.448;8.924;2022-09-28T16:11:02;11.90;99.90
1992;DHT22;997;48.448;8.924;2022-09-28T16:13:29;11.80;99.90
1992;DHT22;997;48.448;8.924;2022-09-28T16:15:58;11.80;99.90
1992;DHT22;997;48.448;8.924;2022-09-28T16:18:26;11.80;99.90
1992;DHT22;997;48.448;8.924;2022-09-28T16:21:24;11.80;99.90
1992;DHT22;997;48.448;8.924;2022-09-28T16:23:52;11.80;99.90
1992;DHT22;997;48.448;8.924;2022-09-28T16:26:35;11.80;99.90
1992;DHT22;997;48.448;8.924;2022-09-28T16:29:34;11.70;99.90
1992;DHT22;997;48.448;8.924;2022-09-28T16:35:19;11.50;99.90
1992;DHT22;997;48.448;8.924;2022-09-28T16:37:47;11.50;99.90
1992;DHT22;997;48.448;8.924;2022-09-28T16:40:13;11.40;99.90
1992;DHT22;997;48.448;8.924;2022-09-28T16:42:43;11.40;99.90
1992;DHT22;997;48.448;8.924;2022-09-28T16:45:19;11.30;99.90
1992;DHT22;997;48.448;8.924;2022-09-28T16:47:46;11.30;99.90
1992;DHT22;997;48.448;8.924;2022-09-28T16:50:16;11.20;99.90
1992;DHT22;997;48.448;8.924;2022-09-28T16:52:42;11.10;99.90
1992;DHT22;997;48.448;8.924;2022-09-28T16:55:27;11.10;99.90
1992;DHT22;997;48.448;8.924;2022-09-28T16:57:53;11.10;99.90
1992;DHT22;997;48.448;8.924;2022-09-28T17:00:22;11.10;99.90
1992;DHT22;997;48.448;8.924;2022-09-28T17:02:49;11.20;99.90
1992;DHT22;997;48.448;8.924;2022-09-28T17:05:16;11.20;99.90
1992;DHT22;997;48.448;8.924;2022-09-28T17:07:42;11.20;99.90
1992;DHT22;997;48.448;8.924;2022-09-28T17:10:36;11.30;99.90
1992;DHT22;997;48.448;8.924;2022-09-28T17:13:02;11.30;99.90
1992;DHT22;997;48.448;8.924;2022-09-28T17:15:28;11.30;99.90
1992;DHT22;997;48.448;8.924;2022-09-28T17:17:54;11.30;99.90
1992;DHT22;997;48.448;8.924;2022-09-28T17:20:25;11.20;99.90
1992;DHT22;997;48.448;8.924;2022-09-28T17:22:52;11.20;99.90
1992;DHT22;997;48.448;8.924;2022-09-28T17:25:20;11.20;99.90
1992;DHT22;997;48.448;8.924;2022-09-28T17:27:47;11.10;99.90
1992;DHT22;997;48.448;8.924;2022-09-28T17:30:14;11.20;99.90
1992;DHT22;997;48.448;8.924;2022-09-28T17:32:41;11.20;99.90
1992;DHT22;997;48.448;8.924;2022-09-28T17:35:18;11.30;99.90
1992;DHT22;997;48.448;8.924;2022-09-28T17:37:44;11.30;99.90
1992;DHT22;997;48.448;8.924;2022-09-28T17:40:19;11.30;99.90
1992;DHT22;997;48.448;8.924;2022-09-28T17:42:46;11.20;99.90
1992;DHT22;997;48.448;8.924;2022-09-28T17:45:13;11.20;99.90
1992;DHT22;997;48.448;8.924;2022-09-28T17:47:39;11.10;99.90
1992;DHT22;997;48.448;8.924;2022-09-28T17:50:25;11.20;99.90
1992;DHT22;997;48.448;8.924;2022-09-28T17:52:51;11.20;99.90
1992;DHT22;997;48.448;8.924;2022-09-28T17:55:23;11.20;99.90
1992;DHT22;997;48.448;8.924;2022-09-28T17:57:49;11.20;99.90
1992;DHT22;997;48.448;8.924;2022-09-28T18:00:16;11.20;99.90
1992;DHT22;997;48.448;8.924;2022-09-28T18:02:42;11.10;99.90
1992;DHT22;997;48.448;8.924;2022-09-28T18:05:09;11.10;99.90
1992;DHT22;997;48.448;8.924;2022-09-28T18:07:40;11.00;99.90
1992;DHT22;997;48.448;8.924;2022-09-28T18:10:10;11.00;99.90
1992;DHT22;997;48.448;8.924;2022-09-28T18:12:36;11.00;99.90
1992;DHT22;997;48.448;8.924;2022-09-28T18:15:02;11.00;99.90
1992;DHT22;997;48.448;8.924;2022-09-28T18:17:28;11.00;99.90
1992;DHT22;997;48.448;8.924;2022-09-28T18:19:54;11.00;99.90
1992;DHT22;997;48.448;8.924;2022-09-28T18:22:20;11.00;99.90
1992;DHT22;997;48.448;8.924;2022-09-28T18:24:45;11.00;99.90
1992;DHT22;997;48.448;8.924;2022-09-28T18:27:11;11.00;99.90
1992;DHT22;997;48.448;8.924;2022-09-28T18:29:37;10.90;99.90
1992;DHT22;997;48.448;8.924;2022-09-28T18:32:03;10.80;99.90
1992;DHT22;997;48.448;8.924;2022-09-28T18:34:29;10.70;99.90
1992;DHT22;997;48.448;8.924;2022-09-28T18:36:55;10.60;99.90
1992;DHT22;997;48.448;8.924;2022-09-28T18:39:21;10.50;99.90
1992;DHT22;997;48.448;8.924;2022-09-28T18:41:48;10.50;99.90
1992;DHT22;997;48.448;8.924;2022-09-28T18:44:13;10.50;99.90
1992;DHT22;997;48.448;8.924;2022-09-28T18:46:41;10.60;99.90
1992;DHT22;997;48.448;8.924;2022-09-28T18:49:07;10.60;99.90
1992;DHT22;997;48.448;8.924;2022-09-28T18:51:33;10.60;99.90
1992;DHT22;997;48.448;8.924;2022-09-28T18:53:59;10.70;99.90
1992;DHT22;997;48.448;8.924;2022-09-28T18:56:33;10.70;99.90
1992;DHT22;997;48.448;8.924;2022-09-28T18:58:59;10.60;99.90
1992;DHT22;997;48.448;8.924;2022-09-28T19:01:26;10.50;99.90
1992;DHT22;997;48.448;8.924;2022-09-28T19:03:51;10.50;99.90
1992;DHT22;997;48.448;8.924;2022-09-28T19:06:19;10.50;99.90
1992;DHT22;997;48.448;8.924;2022-09-28T19:08:50;10.50;99.90
1992;DHT22;997;48.448;8.924;2022-09-28T19:11:17;10.50;99.90
1992;DHT22;997;48.448;8.924;2022-09-28T19:13:43;10.40;99.90
1992;DHT22;997;48.448;8.924;2022-09-28T19:16:18;10.40;99.90
1992;DHT22;997;48.448;8.924;2022-09-28T19:18:45;10.40;99.90
1992;DHT22;997;48.448;8.924;2022-09-28T19:21:13;10.40;99.90
1992;DHT22;997;48.448;8.924;2022-09-28T19:23:39;10.30;99.90
1992;DHT22;997;48.448;8.924;2022-09-28T19:26:15;10.30;99.90
1992;DHT22;997;48.448;8.924;2022-09-28T19:28:41;10.30;99.90
1992;DHT22;997;48.448;8.924;2022-09-28T19:31:07;10.40;99.90
1992;DHT22;997;48.448;8.924;2022-09-28T19:33:37;10.40;99.90
1992;DHT22;997;48.448;8.924;2022-09-28T19:36:08;10.60;99.90
1992;DHT22;997;48.448;8.924;2022-09-28T19:38:36;10.60;99.90
1992;DHT22;997;48.448;8.924;2022-09-28T19:41:16;10.60;99.90
1992;DHT22;997;48.448;8.924;2022-09-28T19:44:01;10.60;99.90
1992;DHT22;997;48.448;8.924;2022-09-28T19:46:32;10.60;99.90
1992;DHT22;997;48.448;8.924;2022-09-28T19:49:08;10.60;99.90
1992;DHT22;997;48.448;8.924;2022-09-28T19:51:35;10.70;99.90
1992;DHT22;997;48.448;8.924;2022-09-28T19:54:03;10.70;99.90
1992;DHT22;997;48.448;8.924;2022-09-28T19:56:30;10.60;99.90
1992;DHT22;997;48.448;8.924;2022-09-28T19:59:01;10.60;99.90
1992;DHT22;997;48.448;8.924;2022-09-28T20:01:29;10.60;99.90
1992;DHT22;997;48.448;8.924;2022-09-28T20:03:56;10.50;99.90
1992;DHT22;997;48.448;8.924;2022-09-28T20:06:24;10.40;99.90
1992;DHT22;997;48.448;8.924;2022-09-28T20:08:51;10.40;99.90
1992;DHT22;997;48.448;8.924;2022-09-28T20:11:18;10.40;99.90
1992;DHT22;997;48.448;8.924;2022-09-28T20:13:44;10.30;99.90
1992;DHT22;997;48.448;8.924;2022-09-28T20:16:12;10.20;99.90
1992;DHT22;997;48.448;8.924;2022-09-28T20:18:41;10.20;99.90
1992;DHT22;997;48.448;8.924;2022-09-28T20:21:18;10.20;99.90
1992;DHT22;997;48.448;8.924;2022-09-28T20:23:45;10.10;99.90
1992;DHT22;997;48.448;8.924;2022-09-28T20:26:13;10.10;99.90
1992;DHT22;997;48.448;8.924;2022-09-28T20:28:39;10.10;99.90
1992;DHT22;997;48.448;8.924;2022-09-28T20:31:12;10.20;99.90
1992;DHT22;997;48.448;8.924;2022-09-28T20:33:38;10.10;99.90
1992;DHT22;997;48.448;8.924;2022-09-28T20:36:27;10.10;99.90
1992;DHT22;997;48.448;8.924;2022-09-28T20:38:56;10.20;99.90
1992;DHT22;997;48.448;8.924;2022-09-28T20:41:23;10.10;99.90
1992;DHT22;997;48.448;8.924;2022-09-28T20:43:55;10.10;99.90
1992;DHT22;997;48.448;8.924;2022-09-28T20:46:22;10.10;99.90
1992;DHT22;997;48.448;8.924;2022-09-28T20:48:51;10.00;99.90
1992;DHT22;997;48.448;8.924;2022-09-28T20:51:20;10.00;99.90
1992;DHT22;997;48.448;8.924;2022-09-28T20:53:48;9.90;99.90
1992;DHT22;997;48.448;8.924;2022-09-28T20:56:24;9.80;99.90
1992;DHT22;997;48.448;8.924;2022-09-28T20:58:51;9.90;99.90
1992;DHT22;997;48.448;8.924;2022-09-28T21:01:22;9.90;99.90
1992;DHT22;997;48.448;8.924;2022-09-28T21:03:54;9.90;99.90
1992;DHT22;997;48.448;8.924;2022-09-28T21:06:22;9.80;99.90
1992;DHT22;997;48.448;8.924;2022-09-28T21:08:48;9.70;99.90
1992;DHT22;997;48.448;8.924;2022-09-28T21:11:16;9.70;99.90
1992;DHT22;997;48.448;8.924;2022-09-28T21:13:42;9.70;99.90
1992;DHT22;997;48.448;8.924;2022-09-28T21:16:17;9.60;99.90
1992;DHT22;997;48.448;8.924;2022-09-28T21:18:43;9.50;99.90
1992;DHT22;997;48.448;8.924;2022-09-28T21:21:14;9.40;99.90
1992;DHT22;997;48.448;8.924;2022-09-28T21:23:40;9.50;99.90
1992;DHT22;997;48.448;8.924;2022-09-28T21:26:11;9.50;99.90
1992;DHT22;997;48.448;8.924;2022-09-28T21:28:38;9.40;99.90
